Eudora, Missouri
Current Conditions -  °F | °C
As of 6:52 PM on Monday 22 Dec 2014 (Local Time) from KSGF Reporting Station
Overcast Overcast  
Wind Chill: 43°   Ceiling: 2900
Heat Index: 48°   Visibility: 10mi
Dew Point: 45°   Wind: 12mph
Humidity: 89%   Direction: 270°W
Pressure: 29.55"   Gusts: NA
Location:  37.48°N, 93.54°W
Report Text: KSGF 230052Z 27010KT 10SM FEW020 BKN029 OVC033 09/07 A2955 RMK AO2 RAE51 SLP008 P0006 T00890072
Loading
Personal Weather Stations






























Interactive Weather Map New forecast layout! Learn more

10-Day Weather Forecast

Advertisements
Track Severe Weather on mobile